HEAR

El Arish International Airport

El Arish, Egypt
TAF HEAR 141700Z 1418/1524 VRB03KT CAVOK BECMG 1506/1508 34008KT 9999 SCT025 BECMG 1516/1518 VRB03KT
Issued Valid From Valid To
Dec-14 @ 17:00 UTC
(5 hours ago)
Dec-14 @ 18:00 UTC
(4 hours ago)
Dec-16 @ 00:00 UTC
(-1 days ago)
Dec-14 @ 18:00 to Dec-15 @ 06:00
TAF HEAR 141700Z 1418/1524 VRB03KT CAVOK
Wind Visibility Clouds Conditions
Variable at 3 knots 10,000+ meters
  • No significant clouds
Becoming Dec-15 @ 06:00 to Dec-15 @ 16:00
BECMG 1506/1508 34008KT 9999 SCT025
Wind Visibility Clouds Conditions
340° at 8 knots 10,000+ meters
  • Scattered at 2,500' AGL
Becoming Dec-15 @ 16:00 to Dec-16 @ 00:00
BECMG 1516/1518 VRB03KT
Wind Visibility Clouds Conditions
Variable at 3 knots 10,000+ meters
  • Scattered at 2,500' AGL
TAF HEAR 141700Z 1418/1524 VRB03KT CAVOK BECMG 1506/1508 34008KT 9999 SCT025 BECMG 1516/1518 VRB03KT
Issued Dec-14 @ 17:00 UTC
(5 hours ago)
Valid From Dec-14 @ 18:00 UTC
(4 hours ago)
Valid To Dec-16 @ 00:00 UTC
(-1 days ago)
Dec-14 @ 18:00 - Dec-15 @ 06:00
Wind Visibility
Variable at 3 knots 10,000+ meters
Clouds
  • No significant clouds
Conditions
Becoming Dec-15 @ 06:00 - Dec-15 @ 16:00
Wind Visibility
340° at 8 knots 10,000+ meters
Clouds
  • Scattered at 2,500' AGL
Conditions
Becoming Dec-15 @ 16:00 - Dec-16 @ 00:00
Wind Visibility
Variable at 3 knots 10,000+ meters
Clouds
  • Scattered at 2,500' AGL
Conditions